createdAt,value
2023-02-09T00:01:17.989Z,20.40
2023-02-09T00:03:46.095Z,23.57
2023-02-09T00:06:15.754Z,24.93
2023-02-09T00:08:43.634Z,20.53
2023-02-09T00:11:14.081Z,19.73
2023-02-09T00:13:43.112Z,19.27
2023-02-09T00:16:11.399Z,22.53
2023-02-09T00:18:40.660Z,19.33
2023-02-09T00:21:10.694Z,28.33
2023-02-09T00:23:41.357Z,22.97
2023-02-09T00:26:11.778Z,25.87
2023-02-09T00:28:39.707Z,20.77
2023-02-09T00:31:08.735Z,19.77
2023-02-09T00:33:37.273Z,27.20
2023-02-09T00:36:08.253Z,20.93
2023-02-09T00:38:36.755Z,20.97
2023-02-09T00:41:05.302Z,22.80
2023-02-09T00:43:33.777Z,22.83
2023-02-09T00:46:01.838Z,23.03
2023-02-09T00:48:29.844Z,24.23
2023-02-09T00:50:57.673Z,21.50
2023-02-09T00:53:27.240Z,20.57
2023-02-09T00:55:55.001Z,24.20
2023-02-09T00:58:22.785Z,19.70
2023-02-09T01:00:51.167Z,24.30
2023-02-09T01:03:19.014Z,20.43
2023-02-09T01:05:46.812Z,22.70
2023-02-09T01:08:14.588Z,23.53
2023-02-09T01:10:43.902Z,25.03
2023-02-09T01:13:11.850Z,22.80
2023-02-09T01:15:40.787Z,22.17
2023-02-09T01:18:08.657Z,21.87
2023-02-09T01:20:36.677Z,25.10
2023-02-09T01:23:04.484Z,19.93
2023-02-09T01:25:32.262Z,21.53
2023-02-09T01:28:01.426Z,25.93
2023-02-09T01:30:29.598Z,22.20
2023-02-09T01:32:57.440Z,22.53
2023-02-09T01:35:25.234Z,21.37
2023-02-09T01:37:53.006Z,25.43
2023-02-09T01:40:20.835Z,24.73
2023-02-09T01:42:48.666Z,22.77
2023-02-09T01:45:23.798Z,22.23
2023-02-09T01:47:57.501Z,22.80
2023-02-09T01:50:26.632Z,20.37
2023-02-09T01:52:54.798Z,27.10
2023-02-09T01:55:25.318Z,21.80
2023-02-09T01:57:56.693Z,22.53
2023-02-09T02:00:26.606Z,21.60
2023-02-09T02:02:58.820Z,22.70
2023-02-09T02:05:28.847Z,25.53
2023-02-09T02:08:02.143Z,21.37
2023-02-09T02:10:30.150Z,24.10
2023-02-09T02:12:58.585Z,23.63
2023-02-09T02:15:30.993Z,24.57
2023-02-09T02:18:24.247Z,24.47
2023-02-09T02:21:12.323Z,27.60
2023-02-09T02:23:48.389Z,21.83
2023-02-09T02:26:51.694Z,22.27
2023-02-09T02:29:59.514Z,29.93
2023-02-09T02:32:39.891Z,23.93
2023-02-09T02:35:16.623Z,26.57
2023-02-09T02:37:56.884Z,24.00
2023-02-09T02:40:34.004Z,24.50
2023-02-09T02:43:09.596Z,23.27
2023-02-09T02:45:44.814Z,25.83
2023-02-09T02:48:21.619Z,26.10
2023-02-09T02:50:54.890Z,25.53
2023-02-09T02:53:27.161Z,26.33
2023-02-09T02:55:57.562Z,25.20
2023-02-09T02:58:26.761Z,24.43
2023-02-09T03:00:58.398Z,26.87
2023-02-09T03:03:32.520Z,22.57
2023-02-09T03:06:03.795Z,21.83
2023-02-09T03:08:31.561Z,25.10
2023-02-09T03:10:59.620Z,25.87
2023-02-09T03:13:41.537Z,26.63
2023-02-09T03:16:25.528Z,24.10
2023-02-09T03:19:05.363Z,22.03
2023-02-09T03:21:42.540Z,24.77
2023-02-09T03:24:20.318Z,21.50
2023-02-09T03:26:52.910Z,23.90
2023-02-09T03:29:22.575Z,23.23
2023-02-09T03:31:51.040Z,23.20
2023-02-09T03:34:20.503Z,24.33
2023-02-09T03:36:53.084Z,24.93
2023-02-09T03:39:20.917Z,25.47
2023-02-09T03:41:48.731Z,24.30
2023-02-09T03:44:28.636Z,26.23
2023-02-09T03:46:58.462Z,24.47
2023-02-09T03:49:29.619Z,21.93
2023-02-09T03:52:00.603Z,25.97
2023-02-09T03:54:28.749Z,20.20
2023-02-09T03:56:56.572Z,26.63
2023-02-09T03:59:25.815Z,22.27
2023-02-09T04:01:54.082Z,21.60
2023-02-09T04:04:22.986Z,26.73
2023-02-09T04:06:52.706Z,26.03
2023-02-09T04:09:20.877Z,28.33
2023-02-09T04:11:48.719Z,25.67
2023-02-09T04:14:16.712Z,25.57
2023-02-09T04:16:44.738Z,25.93
2023-02-09T04:19:12.569Z,25.33
2023-02-09T04:21:40.793Z,26.13
2023-02-09T04:24:10.555Z,23.87
2023-02-09T04:26:38.404Z,25.70
2023-02-09T04:29:06.192Z,27.90
2023-02-09T04:31:34.808Z,26.13
2023-02-09T04:34:02.999Z,26.40
2023-02-09T04:36:31.058Z,27.90
2023-02-09T04:38:58.848Z,23.53
2023-02-09T04:41:28.019Z,26.90
2023-02-09T04:43:55.796Z,24.93
2023-02-09T04:46:23.600Z,23.90
2023-02-09T04:48:51.406Z,22.80
2023-02-09T04:51:19.207Z,20.50
2023-02-09T04:53:46.973Z,29.63
2023-02-09T04:56:15.955Z,28.63
2023-02-09T04:59:02.697Z,24.20
2023-02-09T05:01:31.164Z,28.97
2023-02-09T05:03:59.043Z,24.60
2023-02-09T05:06:26.873Z,26.70
2023-02-09T05:08:54.659Z,22.77
2023-02-09T05:11:23.772Z,30.27
2023-02-09T05:13:54.567Z,24.93
2023-02-09T05:16:22.430Z,21.93
2023-02-09T05:18:51.056Z,27.47
2023-02-09T05:21:18.885Z,28.87
2023-02-09T05:23:46.691Z,28.13
2023-02-09T05:26:14.463Z,25.67
2023-02-09T05:28:42.385Z,28.63
2023-02-09T05:31:11.530Z,29.53
2023-02-09T05:33:39.334Z,23.13
2023-02-09T05:36:09.370Z,24.10
2023-02-09T05:38:37.665Z,28.30
2023-02-09T05:41:06.976Z,31.23
2023-02-09T05:43:35.386Z,30.10
2023-02-09T05:46:05.702Z,32.57
2023-02-09T05:48:36.241Z,31.77
2023-02-09T05:51:04.014Z,24.70
2023-02-09T05:53:31.776Z,30.60
2023-02-09T05:55:59.562Z,32.03
2023-02-09T05:58:27.412Z,25.87
2023-02-09T06:00:55.166Z,29.10
2023-02-09T06:03:23.023Z,30.23
2023-02-09T06:05:52.233Z,29.30
2023-02-09T06:08:20.153Z,27.13
2023-02-09T06:10:48.206Z,25.43
2023-02-09T06:13:16.458Z,27.37
2023-02-09T06:15:44.436Z,29.00
2023-02-09T06:18:12.229Z,32.50
2023-02-09T06:20:40.002Z,29.37
2023-02-09T06:23:09.123Z,27.17
2023-02-09T06:25:39.821Z,28.00
2023-02-09T06:28:07.703Z,35.10
2023-02-09T06:30:35.870Z,34.60
2023-02-09T06:33:03.733Z,39.20
2023-02-09T06:35:31.537Z,31.50
2023-02-09T06:38:00.289Z,35.03
2023-02-09T06:40:30.084Z,38.83
2023-02-09T06:42:58.094Z,35.43
2023-02-09T06:45:25.925Z,39.40
2023-02-09T06:47:53.728Z,36.57
2023-02-09T06:50:21.538Z,32.70
2023-02-09T06:52:49.605Z,34.03
2023-02-09T06:55:17.530Z,30.63
2023-02-09T06:57:46.608Z,35.40
2023-02-09T07:00:15.699Z,34.90
2023-02-09T07:02:43.880Z,31.27
2023-02-09T07:05:12.259Z,33.40
2023-02-09T07:07:40.622Z,35.13
2023-02-09T07:10:10.267Z,35.30
2023-02-09T07:12:40.373Z,35.57
2023-02-09T07:15:10.470Z,32.83
2023-02-09T07:17:38.273Z,36.67
2023-02-09T07:20:07.692Z,35.93
2023-02-09T07:22:35.776Z,38.07
2023-02-09T07:25:03.661Z,34.77
2023-02-09T07:27:31.444Z,35.83
2023-02-09T07:30:00.922Z,38.93
2023-02-09T07:32:30.438Z,35.03
2023-02-09T07:34:58.199Z,30.23
2023-02-09T07:37:25.954Z,36.27
2023-02-09T07:39:53.732Z,41.87
2023-02-09T07:42:23.300Z,40.00
2023-02-09T07:44:51.279Z,36.70
2023-02-09T07:47:19.083Z,36.53
2023-02-09T07:49:48.201Z,35.40
2023-02-09T07:52:15.980Z,35.23
2023-02-09T07:54:43.915Z,34.90
2023-02-09T07:57:13.568Z,33.87
2023-02-09T07:59:41.414Z,38.43
2023-02-09T08:02:18.011Z,36.27
2023-02-09T08:04:46.155Z,36.67
2023-02-09T08:07:15.310Z,39.33
2023-02-09T08:09:44.938Z,44.40
2023-02-09T08:12:12.809Z,40.87
2023-02-09T08:14:48.208Z,41.67
2023-02-09T08:17:24.082Z,44.40
2023-02-09T08:19:55.061Z,35.63
2023-02-09T08:22:25.869Z,38.60
2023-02-09T08:24:54.378Z,36.03
2023-02-09T08:27:23.191Z,32.63
2023-02-09T08:29:51.039Z,33.23
2023-02-09T08:32:19.241Z,34.13
2023-02-09T08:34:47.190Z,32.10
2023-02-09T08:37:14.974Z,40.73
2023-02-09T08:39:45.626Z,35.30
2023-02-09T08:42:13.384Z,38.80
2023-02-09T08:44:41.152Z,36.77
2023-02-09T08:47:09.049Z,35.50
2023-02-09T08:49:37.278Z,39.00
2023-02-09T08:52:05.428Z,36.60
2023-02-09T08:54:33.169Z,40.93
2023-02-09T08:57:02.654Z,40.87
2023-02-09T08:59:30.874Z,38.30
2023-02-09T09:01:58.646Z,39.67
2023-02-09T09:04:26.476Z,36.00
2023-02-09T09:06:54.873Z,37.90
2023-02-09T09:09:22.638Z,36.00
2023-02-09T09:11:50.400Z,35.00
2023-02-09T09:14:19.516Z,36.57
2023-02-09T09:16:47.349Z,34.00
2023-02-09T09:19:15.190Z,34.27
2023-02-09T09:21:43.008Z,34.00
2023-02-09T09:24:10.804Z,36.07
2023-02-09T09:26:38.566Z,32.97
2023-02-09T09:29:06.355Z,35.10
2023-02-09T09:31:37.050Z,32.73
2023-02-09T09:34:04.970Z,34.97
2023-02-09T09:36:32.829Z,34.53
2023-02-09T09:39:00.655Z,32.83
2023-02-09T09:41:32.422Z,39.07
2023-02-09T09:44:01.970Z,34.13
2023-02-09T09:46:36.877Z,31.90
2023-02-09T09:49:05.509Z,29.50
2023-02-09T09:51:39.796Z,30.13
2023-02-09T09:54:13.683Z,28.53
2023-02-09T09:56:42.238Z,37.20
2023-02-09T09:59:17.574Z,35.23
2023-02-09T10:01:47.871Z,39.50
2023-02-09T10:04:16.503Z,34.90
2023-02-09T10:06:46.577Z,30.37
2023-02-09T10:09:25.928Z,41.77
2023-02-09T10:12:00.007Z,35.30
2023-02-09T10:14:28.454Z,38.90
2023-02-09T10:16:57.575Z,34.23
2023-02-09T10:19:27.057Z,31.10
2023-02-09T10:21:56.335Z,30.10
2023-02-09T10:24:25.994Z,30.07
2023-02-09T10:27:06.170Z,27.20
2023-02-09T10:29:35.131Z,30.23
2023-02-09T10:32:08.857Z,30.07
2023-02-09T10:34:44.779Z,32.30
2023-02-09T10:37:20.283Z,33.30
2023-02-09T10:39:57.101Z,32.30
2023-02-09T10:42:30.225Z,30.03
2023-02-09T10:45:04.413Z,29.77
2023-02-09T10:47:33.838Z,33.17
2023-02-09T10:50:07.258Z,29.10
2023-02-09T10:52:36.684Z,31.00
2023-02-09T10:55:07.698Z,33.37
2023-02-09T10:57:38.171Z,28.43
2023-02-09T11:00:25.680Z,29.33
2023-02-09T11:02:57.644Z,31.03
2023-02-09T11:05:29.201Z,30.10
2023-02-09T11:08:02.148Z,28.80
2023-02-09T11:10:33.182Z,31.30
2023-02-09T11:13:01.862Z,32.07
2023-02-09T11:15:39.308Z,29.70
2023-02-09T11:18:14.605Z,30.70
2023-02-09T11:20:49.130Z,29.53
2023-02-09T11:23:36.962Z,30.93
2023-02-09T11:26:10.108Z,29.47
2023-02-09T11:28:49.260Z,30.43
2023-02-09T11:31:40.202Z,27.97
2023-02-09T11:34:19.471Z,28.30
2023-02-09T11:36:52.834Z,27.07
2023-02-09T11:39:27.545Z,27.00
2023-02-09T11:42:17.448Z,30.30
2023-02-09T11:44:52.858Z,26.80
2023-02-09T11:47:26.889Z,28.93
2023-02-09T11:50:00.300Z,27.37
2023-02-09T11:52:35.092Z,26.83
2023-02-09T11:55:09.539Z,29.07
2023-02-09T11:57:43.045Z,28.23
2023-02-09T12:00:20.172Z,26.77
2023-02-09T12:02:56.121Z,26.17
2023-02-09T12:05:26.001Z,26.77
2023-02-09T12:08:18.787Z,28.40
2023-02-09T12:10:54.777Z,30.10
2023-02-09T12:13:33.597Z,26.80
2023-02-09T12:16:05.605Z,25.30
2023-02-09T12:18:35.484Z,25.50
2023-02-09T12:21:06.830Z,25.33
2023-02-09T12:23:35.866Z,25.90
2023-02-09T12:26:24.250Z,30.57
2023-02-09T12:29:03.586Z,27.17
2023-02-09T12:31:52.310Z,25.50
2023-02-09T12:34:38.457Z,30.90
2023-02-09T12:37:20.064Z,25.83
2023-02-09T12:40:18.305Z,27.77
2023-02-09T12:42:47.513Z,27.93
2023-02-09T12:45:35.299Z,28.70
2023-02-09T12:48:17.607Z,31.97
2023-02-09T12:50:54.744Z,25.30
2023-02-09T12:53:50.457Z,27.10
2023-02-09T12:56:32.513Z,30.63
2023-02-09T12:59:18.399Z,31.70
2023-02-09T13:02:23.861Z,32.20
2023-02-09T13:05:08.911Z,30.30
2023-02-09T13:07:52.562Z,29.10
2023-02-09T13:10:26.171Z,27.60
2023-02-09T13:12:58.758Z,27.80
2023-02-09T13:15:32.465Z,25.90
2023-02-09T13:18:09.837Z,30.53
2023-02-09T13:21:13.879Z,28.00
2023-02-09T13:23:52.549Z,28.73
2023-02-09T13:26:23.408Z,26.73
2023-02-09T13:29:19.358Z,30.47
2023-02-09T13:31:57.323Z,25.60
2023-02-09T13:34:33.069Z,27.90
2023-02-09T13:37:16.168Z,23.80
2023-02-09T13:39:44.742Z,33.53
2023-02-09T13:42:18.618Z,25.57
2023-02-09T13:44:47.149Z,23.00
2023-02-09T13:47:16.504Z,27.00
2023-02-09T13:49:55.710Z,26.20
2023-02-09T13:52:26.746Z,24.63
2023-02-09T13:54:55.171Z,24.20
2023-02-09T13:57:31.782Z,26.53
2023-02-09T14:00:08.042Z,23.93
2023-02-09T14:02:36.825Z,28.80
2023-02-09T14:05:07.799Z,28.83
2023-02-09T14:07:38.513Z,26.70
2023-02-09T14:10:13.162Z,24.13
2023-02-09T14:12:56.567Z,26.20
2023-02-09T14:15:48.416Z,24.70
2023-02-09T14:18:24.616Z,28.33
2023-02-09T14:21:03.360Z,26.37
2023-02-09T14:23:35.080Z,26.10
2023-02-09T14:26:16.452Z,25.10
2023-02-09T14:28:47.307Z,25.50
2023-02-09T14:31:20.533Z,33.83
2023-02-09T14:33:49.709Z,31.73
2023-02-09T14:36:24.658Z,25.43
2023-02-09T14:39:05.560Z,24.07
2023-02-09T14:41:36.375Z,32.17
2023-02-09T14:44:18.523Z,28.00
2023-02-09T14:46:51.125Z,45.70
2023-02-09T14:49:19.332Z,39.03
2023-02-09T14:51:48.316Z,28.27
2023-02-09T14:54:24.931Z,26.93
2023-02-09T14:56:53.589Z,31.40
2023-02-09T14:59:22.536Z,25.00
2023-02-09T15:01:52.632Z,26.20
2023-02-09T15:04:20.976Z,22.00
2023-02-09T15:07:02.635Z,21.10
2023-02-09T15:09:37.899Z,21.63
2023-02-09T15:12:06.171Z,20.77
2023-02-09T15:14:42.980Z,21.47
2023-02-09T15:17:13.996Z,25.33
2023-02-09T15:19:42.167Z,25.90
2023-02-09T15:22:13.508Z,24.90
2023-02-09T15:24:43.045Z,23.73
2023-02-09T15:27:21.008Z,28.97
2023-02-09T15:29:49.131Z,24.40
2023-02-09T15:32:18.230Z,22.53
2023-02-09T15:34:46.752Z,26.60
2023-02-09T15:37:21.585Z,23.37
2023-02-09T15:39:52.143Z,24.67
2023-02-09T15:42:38.634Z,25.43
2023-02-09T15:45:34.257Z,22.73
2023-02-09T15:48:02.414Z,24.60
2023-02-09T15:50:31.636Z,28.83
2023-02-09T15:52:59.957Z,23.60
2023-02-09T15:55:29.474Z,21.53
2023-02-09T15:57:57.705Z,41.03
2023-02-09T16:00:27.145Z,59.57
2023-02-09T16:02:55.481Z,64.13
2023-02-09T16:05:24.462Z,47.50
2023-02-09T16:07:53.592Z,40.40
2023-02-09T16:10:26.524Z,212.33
2023-02-09T16:12:56.600Z,221.93
2023-02-09T16:15:25.577Z,180.27
2023-02-09T16:17:53.625Z,141.70
2023-02-09T16:20:22.212Z,67.40
2023-02-09T16:22:53.191Z,41.23
2023-02-09T16:25:24.663Z,30.30
2023-02-09T16:27:53.682Z,33.27
2023-02-09T16:30:24.387Z,29.23
2023-02-09T16:32:52.822Z,31.83
2023-02-09T16:35:21.707Z,26.50
2023-02-09T16:37:51.014Z,24.40
2023-02-09T16:40:25.488Z,27.40
2023-02-09T16:42:53.746Z,25.30
2023-02-09T16:45:24.253Z,24.67
2023-02-09T16:47:57.213Z,26.50
2023-02-09T16:50:28.096Z,27.30
2023-02-09T16:52:57.331Z,29.90
2023-02-09T16:55:28.780Z,23.33
2023-02-09T16:57:58.068Z,23.40
2023-02-09T17:00:29.857Z,25.00
2023-02-09T17:02:59.492Z,23.87
2023-02-09T17:05:28.364Z,19.80
2023-02-09T17:07:57.761Z,25.60
2023-02-09T17:10:27.128Z,23.47
2023-02-09T17:12:55.318Z,25.83
2023-02-09T17:15:30.488Z,20.37
2023-02-09T17:18:02.717Z,22.23
2023-02-09T17:20:33.791Z,24.80
2023-02-09T17:23:01.923Z,23.93
2023-02-09T17:25:30.141Z,21.83
2023-02-09T17:27:58.384Z,24.53
2023-02-09T17:30:26.543Z,23.13
2023-02-09T17:32:59.610Z,20.50
2023-02-09T17:35:58.073Z,25.27
2023-02-09T17:38:21.992Z,27.33
2023-02-09T17:40:50.285Z,24.70
2023-02-09T17:43:18.660Z,21.90
2023-02-09T17:45:49.442Z,25.17
2023-02-09T17:48:18.220Z,22.90
2023-02-09T17:50:48.679Z,25.87
2023-02-09T17:53:18.922Z,26.23
2023-02-09T17:55:47.297Z,29.47
2023-02-09T17:58:15.693Z,31.67
2023-02-09T18:00:44.320Z,40.93
2023-02-09T18:03:13.650Z,32.27
2023-02-09T18:05:42.036Z,34.37
2023-02-09T18:08:11.547Z,36.47
2023-02-09T18:10:39.914Z,37.77
2023-02-09T18:13:08.051Z,39.93
2023-02-09T18:15:37.142Z,32.87
2023-02-09T18:18:05.763Z,36.70
2023-02-09T18:20:35.980Z,32.50
2023-02-09T18:23:04.739Z,32.60
2023-02-09T18:25:34.992Z,32.70
2023-02-09T18:28:03.657Z,29.73
2023-02-09T18:30:32.931Z,31.53
2023-02-09T18:33:01.243Z,28.37
2023-02-09T18:35:33.052Z,31.80
2023-02-09T18:38:01.280Z,26.17
2023-02-09T18:40:29.894Z,28.27
2023-02-09T18:42:59.392Z,26.77
2023-02-09T18:45:27.517Z,25.87
2023-02-09T18:47:55.629Z,25.10
2023-02-09T18:50:24.982Z,28.60
2023-02-09T18:52:54.803Z,30.87
2023-02-09T18:55:24.447Z,30.63
2023-02-09T18:57:53.227Z,32.10
2023-02-09T19:00:23.494Z,29.73
2023-02-09T19:02:53.238Z,29.47
2023-02-09T19:05:21.663Z,25.77
2023-02-09T19:07:49.820Z,27.20
2023-02-09T19:10:19.079Z,29.87
2023-02-09T19:12:47.398Z,27.27
2023-02-09T19:15:15.713Z,28.67
2023-02-09T19:17:45.623Z,29.60
2023-02-09T19:20:17.484Z,26.97
2023-02-09T19:22:47.396Z,28.40
2023-02-09T19:25:15.629Z,27.10
2023-02-09T19:27:43.790Z,29.20
2023-02-09T19:30:14.208Z,25.70
2023-02-09T19:32:42.505Z,28.53
2023-02-09T19:35:12.332Z,22.60
2023-02-09T19:37:41.897Z,26.60
2023-02-09T19:40:20.808Z,28.10
2023-02-09T19:42:49.051Z,28.70
2023-02-09T19:45:17.328Z,21.57
2023-02-09T19:47:45.468Z,27.27
2023-02-09T19:50:16.037Z,24.43
2023-02-09T19:52:47.338Z,23.00
2023-02-09T19:55:16.546Z,27.20
2023-02-09T19:57:44.689Z,29.50
2023-02-09T20:00:17.985Z,33.23
2023-02-09T20:02:46.286Z,30.60
2023-02-09T20:05:15.852Z,25.33
2023-02-09T20:07:44.021Z,30.87
2023-02-09T20:10:12.392Z,29.13
2023-02-09T20:12:40.642Z,30.23
2023-02-09T20:15:08.991Z,30.40
2023-02-09T20:17:37.110Z,31.17
2023-02-09T20:20:05.603Z,37.47
2023-02-09T20:22:36.691Z,38.20
2023-02-09T20:25:04.975Z,35.80
2023-02-09T20:27:33.748Z,37.17
2023-02-09T20:30:03.863Z,38.63
2023-02-09T20:32:32.230Z,38.30
2023-02-09T20:35:00.361Z,31.63
2023-02-09T20:37:28.199Z,35.20
2023-02-09T20:39:57.474Z,32.57
2023-02-09T20:42:42.684Z,37.53
2023-02-09T20:45:31.150Z,31.60
2023-02-09T20:47:59.028Z,42.10
2023-02-09T20:50:27.110Z,35.87
2023-02-09T20:52:54.903Z,34.50
2023-02-09T20:55:24.078Z,33.87
2023-02-09T20:57:52.273Z,29.63
2023-02-09T21:00:20.622Z,36.27
2023-02-09T21:02:48.818Z,41.93
2023-02-09T21:05:17.583Z,34.80
2023-02-09T21:07:45.856Z,31.77
2023-02-09T21:10:15.675Z,30.30
2023-02-09T21:12:46.520Z,29.90
2023-02-09T21:15:14.962Z,26.47
2023-02-09T21:17:47.598Z,30.17
2023-02-09T21:20:16.324Z,23.40
2023-02-09T21:22:44.551Z,31.43
2023-02-09T21:25:13.719Z,27.07
2023-02-09T21:27:41.873Z,27.43
2023-02-09T21:30:12.060Z,24.67
2023-02-09T21:32:40.269Z,25.57
2023-02-09T21:35:10.267Z,23.47
2023-02-09T21:37:38.971Z,23.47
2023-02-09T21:40:07.345Z,27.47
2023-02-09T21:42:36.877Z,26.27
2023-02-09T21:45:07.677Z,28.03
2023-02-09T21:47:38.558Z,24.57
2023-02-09T21:50:07.782Z,26.60
2023-02-09T21:52:36.182Z,25.53
2023-02-09T21:55:04.357Z,28.53
2023-02-09T21:57:32.489Z,25.60
2023-02-09T22:00:05.240Z,30.43
2023-02-09T22:02:33.357Z,28.93
2023-02-09T22:05:02.859Z,41.47
2023-02-09T22:07:31.017Z,48.60
2023-02-09T22:09:59.215Z,36.20
2023-02-09T22:12:27.357Z,32.33
2023-02-09T22:14:55.492Z,39.00
2023-02-09T22:17:23.255Z,29.20
2023-02-09T22:19:51.066Z,29.50
2023-02-09T22:22:20.187Z,27.17
2023-02-09T22:24:47.964Z,27.93
2023-02-09T22:27:15.752Z,26.10
2023-02-09T22:29:44.229Z,29.90
2023-02-09T22:32:12.021Z,25.57
2023-02-09T22:34:39.956Z,25.13
2023-02-09T22:37:07.746Z,26.97
2023-02-09T22:39:36.913Z,27.20
2023-02-09T22:42:05.021Z,25.10
2023-02-09T22:44:33.435Z,27.70
2023-02-09T22:47:01.246Z,24.30
2023-02-09T22:49:29.069Z,26.37
2023-02-09T22:51:56.845Z,25.80
2023-02-09T22:54:24.649Z,30.03
2023-02-09T22:56:53.808Z,28.23
2023-02-09T22:59:21.612Z,20.37
2023-02-09T23:01:49.515Z,19.83
2023-02-09T23:04:17.381Z,21.70
2023-02-09T23:06:45.407Z,22.10
2023-02-09T23:09:15.004Z,21.30
2023-02-09T23:11:44.112Z,22.10
2023-02-09T23:14:13.565Z,25.83
2023-02-09T23:16:43.121Z,20.27
2023-02-09T23:19:14.051Z,22.33
2023-02-09T23:21:44.284Z,22.40
2023-02-09T23:24:12.910Z,22.37
2023-02-09T23:26:41.457Z,22.47
2023-02-09T23:29:12.258Z,22.13
2023-02-09T23:31:41.856Z,19.17
2023-02-09T23:34:12.694Z,20.67
2023-02-09T23:36:40.529Z,22.13
2023-02-09T23:39:08.503Z,19.20
2023-02-09T23:41:36.543Z,22.03
2023-02-09T23:44:04.721Z,21.80
2023-02-09T23:46:32.614Z,20.37
2023-02-09T23:49:01.774Z,21.63
2023-02-09T23:51:31.666Z,22.23
2023-02-09T23:54:01.586Z,23.83
2023-02-09T23:56:31.698Z,22.67
2023-02-09T23:58:59.859Z,23.70
